Time;durP1;ratioP1;P1;durP2;ratioP2;P2;SDS_P1;SDS_P2;PMS_P1;PMS_P2;Temp;Humidity;BMP_temperature;BMP_pressure;BME280_temperature;BME280_humidity;BME280_pressure;Samples;Min_cycle;Max_cycle;Signal;HPM_P1;HPM_P2
2021/08/30 00:04:41;;;;;;;26.80;16.90;;;;;;;15.36;97.41;101753.69;10102330;28;20067;-67
2021/08/30 00:09:38;;;;;;;29.67;18.85;;;;;;;15.34;96.89;101751.28;10102100;28;20043;-70
2021/08/30 00:14:34;;;;;;;25.02;18.23;;;;;;;15.30;97.24;101755.81;10096014;28;20070;-70
2021/08/30 00:19:33;;;;;;;27.15;18.17;;;;;;;15.32;97.03;101753.56;10098936;28;20142;-70
2021/08/30 00:24:30;;;;;;;29.23;18.05;;;;;;;15.27;97.21;101755.66;10097361;28;20101;-70
2021/08/30 00:29:26;;;;;;;27.88;18.48;;;;;;;15.30;97.44;101739.28;10090422;28;20135;-69
2021/08/30 00:34:23;;;;;;;26.50;18.45;;;;;;;15.33;97.61;101738.63;10101557;28;20070;-70
2021/08/30 00:39:23;;;;;;;25.88;17.83;;;;;;;15.35;98.05;101736.38;10097490;28;20047;-70
2021/08/30 00:44:22;;;;;;;27.30;19.05;;;;;;;15.35;98.06;101741.88;10101352;28;20087;-70
2021/08/30 00:49:19;;;;;;;23.88;18.35;;;;;;;15.40;97.79;101742.84;10108518;28;20605;-69
2021/08/30 00:54:15;;;;;;;25.67;16.77;;;;;;;15.40;98.06;101737.34;10104965;28;20073;-70
2021/08/30 00:59:12;;;;;;;25.65;17.88;;;;;;;15.38;98.08;101745.94;10110694;28;20051;-67
2021/08/30 01:09:26;;;;;;;25.55;16.38;;;;;;;15.38;97.80;101756.16;10096696;28;20043;-67
2021/08/30 01:14:25;;;;;;;27.55;16.75;;;;;;;15.40;97.69;101764.91;10116800;28;20070;-67
2021/08/30 01:19:35;;;;;;;25.70;16.60;;;;;;;15.39;97.92;101766.03;10110895;28;20524;-67
2021/08/30 01:24:33;;;;;;;23.05;16.45;;;;;;;15.38;97.76;101767.16;10112952;28;22003;-69
2021/08/30 01:29:41;;;;;;;25.73;17.20;;;;;;;15.40;97.86;101764.91;10110214;28;20043;-67
2021/08/30 01:34:39;;;;;;;25.38;16.75;;;;;;;15.42;97.57;101776.41;10097151;28;20082;-67
2021/08/30 01:39:37;;;;;;;29.10;18.35;;;;;;;15.44;97.63;101768.63;10104878;28;20137;-67
2021/08/30 01:44:34;;;;;;;22.08;16.92;;;;;;;15.43;97.78;101767.00;10102534;28;20576;-67
2021/08/30 01:49:32;;;;;;;24.45;15.95;;;;;;;15.45;97.88;101761.97;10107678;28;20070;-70
2021/08/30 01:54:29;;;;;;;22.63;16.33;;;;;;;15.47;97.41;101759.72;10097457;28;20078;-70
2021/08/30 02:04:41;;;;;;;23.10;16.27;;;;;;;15.40;97.33;101764.91;10101619;28;20455;-69
2021/08/30 02:09:38;;;;;;;24.23;15.32;;;;;;;15.40;97.56;101756.63;10109026;28;20087;-70
2021/08/30 02:14:34;;;;;;;26.30;15.38;;;;;;;15.35;97.54;101747.38;10109163;28;20042;-70
2021/08/30 02:19:50;;;;;;;21.15;16.50;;;;;;;15.36;97.40;101749.03;10113399;28;20042;-68
2021/08/30 02:24:58;;;;;;;25.50;17.42;;;;;;;15.30;97.20;101758.59;10110051;28;20070;-67
2021/08/30 02:30:04;;;;;;;28.10;17.77;;;;;;;15.28;97.51;101757.28;10108285;28;20034;-68
2021/08/30 02:35:03;;;;;;;22.95;16.30;;;;;;;15.32;97.61;101756.31;10146061;28;20089;-68
2021/08/30 02:40:02;;;;;;;26.48;16.90;;;;;;;15.32;97.62;101759.06;10145136;28;20046;-68
2021/08/30 02:45:01;;;;;;;20.13;15.85;;;;;;;15.33;97.59;101755.16;10146422;28;20092;-66
2021/08/30 02:49:59;;;;;;;25.23;15.70;;;;;;;15.35;97.89;101746.59;10146472;28;20066;-67
2021/08/30 02:54:55;;;;;;;25.90;16.77;;;;;;;15.32;97.75;101759.06;10147640;28;20135;-67
2021/08/30 02:59:52;;;;;;;22.10;16.73;;;;;;;15.31;97.74;101751.94;10134401;28;20094;-66
2021/08/30 03:04:49;;;;;;;19.63;15.68;;;;;;;15.36;97.68;101749.03;10143549;28;20051;-67
2021/08/30 03:09:46;;;;;;;22.00;16.73;;;;;;;15.30;97.39;101738.50;10149768;28;20110;-66
2021/08/30 03:14:44;;;;;;;20.63;15.98;;;;;;;15.24;97.67;101748.84;10139564;28;20042;-70
2021/08/30 03:19:44;;;;;;;24.40;17.30;;;;;;;15.24;97.77;101751.59;10144299;28;20093;-70
2021/08/30 03:24:42;;;;;;;22.40;16.20;;;;;;;15.19;97.58;101754.53;10150001;28;20117;-69
2021/08/30 03:29:41;;;;;;;24.75;17.05;;;;;;;15.16;97.57;101752.44;10148699;28;20074;-68
2021/08/30 03:34:38;;;;;;;24.55;16.83;;;;;;;15.17;97.75;101759.53;10147504;28;20050;-69
2021/08/30 03:39:35;;;;;;;22.58;15.90;;;;;;;15.20;98.00;101756.16;10148845;28;20053;-69
2021/08/30 03:44:34;;;;;;;23.08;16.48;;;;;;;15.23;97.96;101761.03;10146159;28;20073;-69
2021/08/30 03:49:32;;;;;;;22.45;17.10;;;;;;;15.24;97.76;101762.63;10133982;28;20073;-68
2021/08/30 03:54:29;;;;;;;28.25;18.38;;;;;;;15.24;97.86;101762.63;10147056;28;20034;-68
2021/08/30 03:59:33;;;;;;;25.65;18.05;;;;;;;15.22;97.86;101761.34;10140841;28;20046;-68
2021/08/30 04:04:31;;;;;;;;;;;;;;;15.19;97.77;101764.75;10140669;28;20492;-67
2021/08/30 04:09:29;;;;;;;22.55;17.98;;;;;;;15.13;98.00;101772.34;10138304;28;19954;-67
2021/08/30 04:14:26;;;;;;;25.80;18.30;;;;;;;15.14;97.91;101773.97;10144328;28;20051;-67
2021/08/30 04:19:23;;;;;;;21.30;17.27;;;;;;;15.19;98.24;101782.06;10147053;28;20134;-68
2021/08/30 04:24:19;;;;;;;21.63;16.52;;;;;;;15.18;98.26;101774.97;10151463;28;20069;-68
2021/08/30 04:29:16;;;;;;;25.40;17.98;;;;;;;15.18;98.24;101783.22;10151630;28;20050;-68
2021/08/30 04:34:12;;;;;;;28.73;18.77;;;;;;;15.15;97.96;101781.09;10135003;28;20046;-67
2021/08/30 04:39:09;;;;;;;28.90;18.05;;;;;;;15.15;98.07;101797.63;10154464;28;20070;-68
2021/08/30 04:44:05;;;;;;;24.48;17.45;;;;;;;15.20;97.90;101794.72;10152362;28;20145;-69
2021/08/30 04:49:02;;;;;;;28.92;18.48;;;;;;;15.22;97.78;101792.44;10151996;28;20039;-70
2021/08/30 04:53:59;;;;;;;27.05;18.55;;;;;;;15.22;97.81;101786.94;10152797;28;20096;-69
2021/08/30 04:58:55;;;;;;;27.63;19.90;;;;;;;15.26;97.85;101803.63;10145736;28;20069;-68
2021/08/30 05:03:53;;;;;;;29.23;18.02;;;;;;;15.28;97.67;101804.94;10147277;28;20043;-69
2021/08/30 05:08:49;;;;;;;23.60;17.98;;;;;;;15.30;97.83;101802.66;10144818;28;20062;-69
2021/08/30 05:13:46;;;;;;;23.05;17.40;;;;;;;15.35;97.75;101807.22;10134948;28;20042;-69
2021/08/30 05:18:42;;;;;;;24.35;16.98;;;;;;;15.36;97.49;101804.13;10143067;28;20085;-70
2021/08/30 05:23:40;;;;;;;25.48;17.58;;;;;;;15.39;97.17;101810.13;10137873;28;20039;-70
2021/08/30 05:28:37;;;;;;;22.88;16.10;;;;;;;15.36;96.89;101803.31;10133981;28;20139;-67
2021/08/30 05:33:36;;;;;;;23.77;16.98;;;;;;;15.38;97.04;101816.78;10149065;28;20596;-69
2021/08/30 05:38:33;;;;;;;22.63;16.23;;;;;;;15.34;97.00;101816.63;10134567;28;20125;-69
2021/08/30 05:43:30;;;;;;;26.63;17.40;;;;;;;15.39;96.99;101815.63;10143589;28;20069;-67
2021/08/30 05:48:26;;;;;;;25.52;16.98;;;;;;;15.44;96.74;101826.50;10146656;28;20760;-70
2021/08/30 05:53:23;;;;;;;27.27;16.88;;;;;;;15.47;96.55;101820.34;10147655;28;20112;-68
2021/08/30 05:58:21;;;;;;;20.88;15.35;;;;;;;15.51;96.45;101813.06;10146088;28;20076;-69
2021/08/30 06:03:17;;;;;;;21.85;14.85;;;;;;;15.53;96.30;101821.81;10148124;28;20077;-68
2021/08/30 06:08:14;;;;;;;21.13;14.52;;;;;;;15.59;95.77;101814.97;10142615;28;20078;-70
2021/08/30 06:13:11;;;;;;;22.42;14.55;;;;;;;15.63;95.57;101818.72;10147760;28;20062;-71
2021/08/30 06:18:08;;;;;;;19.20;14.13;;;;;;;15.75;95.68;101818.88;10146074;28;20069;-72
2021/08/30 06:23:04;;;;;;;19.35;13.82;;;;;;;15.81;95.39;101810.47;10146848;28;20166;-71
2021/08/30 06:28:00;;;;;;;20.88;13.38;;;;;;;15.76;94.75;101806.72;10145235;28;20050;-71
2021/08/30 06:32:57;;;;;;;19.23;12.73;;;;;;;15.76;94.95;101812.25;10149422;28;20495;-71
2021/08/30 06:37:54;;;;;;;20.38;13.73;;;;;;;15.82;94.72;101817.59;10147088;28;20073;-71
2021/08/30 06:42:52;;;;;;;17.15;12.32;;;;;;;15.91;94.40;101821.16;10150297;28;20074;-70
2021/08/30 06:47:49;;;;;;;16.70;12.13;;;;;;;15.95;93.86;101822.13;10142794;28;20050;-71
2021/08/30 06:52:46;;;;;;;17.85;12.40;;;;;;;16.01;93.67;101814.47;10147776;28;20050;-71
2021/08/30 06:57:42;;;;;;;16.15;11.05;;;;;;;16.15;92.98;101806.78;10144957;28;20556;-71
2021/08/30 07:02:41;;;;;;;16.55;10.90;;;;;;;16.32;92.81;101817.00;10143793;28;20047;-70
2021/08/30 07:07:38;;;;;;;15.07;10.50;;;;;;;16.34;91.31;101809.19;10134956;28;20042;-71
2021/08/30 07:12:35;;;;;;;14.63;10.20;;;;;;;16.35;90.86;101810.81;10146599;28;20047;-71
2021/08/30 07:17:32;;;;;;;12.93;8.40;;;;;;;16.36;89.35;101807.72;10136294;28;20096;-71
2021/08/30 07:22:29;;;;;;;12.02;8.93;;;;;;;16.49;88.87;101816.09;10141737;28;20050;-71
2021/08/30 07:27:25;;;;;;;12.25;8.35;;;;;;;16.58;89.05;101814.91;10131810;28;20074;-71
2021/08/30 07:32:21;;;;;;;13.73;9.15;;;;;;;16.60;89.74;101820.91;10144092;28;20564;-71
2021/08/30 07:37:19;;;;;;;13.95;9.32;;;;;;;16.56;89.24;101825.47;10144362;28;20077;-71
2021/08/30 07:42:15;;;;;;;14.65;8.38;;;;;;;16.56;87.96;101828.25;10142710;28;20074;-70
2021/08/30 07:47:12;;;;;;;14.13;7.35;;;;;;;16.59;88.25;101832.28;10134379;28;20074;-71
2021/08/30 07:52:08;;;;;;;12.07;7.72;;;;;;;16.49;87.73;101827.94;10143069;28;20046;-71
2021/08/30 07:57:05;;;;;;;11.77;7.22;;;;;;;16.55;87.71;101840.44;10144372;28;20042;-69
2021/08/30 08:02:02;;;;;;;10.90;7.13;;;;;;;16.56;87.39;101836.53;10140200;28;20072;-72
2021/08/30 08:06:59;;;;;;;13.77;7.80;;;;;;;16.56;87.21;101833.75;10141273;28;20065;-71
2021/08/30 08:11:55;;;;;;;12.75;7.80;;;;;;;16.62;86.55;101848.22;10134176;28;20046;-71
2021/08/30 08:16:52;;;;;;;11.25;7.50;;;;;;;16.75;87.16;101847.16;10138374;28;20114;-69
2021/08/30 08:21:48;;;;;;;11.57;7.57;;;;;;;16.90;85.99;101854.09;10147709;28;20133;-71
2021/08/30 08:26:45;;;;;;;12.20;6.40;;;;;;;17.08;85.52;101849.31;10143125;28;20120;-71
2021/08/30 08:31:41;;;;;;;8.85;6.50;;;;;;;17.20;87.60;101845.81;10138961;28;20066;-72
2021/08/30 08:36:39;;;;;;;11.27;5.97;;;;;;;17.17;86.70;101844.53;10136662;28;20133;-69
2021/08/30 08:41:36;;;;;;;9.45;6.22;;;;;;;17.10;85.37;101846.97;10144283;28;20523;-69
2021/08/30 08:46:36;;;;;;;10.65;6.88;;;;;;;17.00;85.52;101858.44;10139009;28;20081;-70
2021/08/30 08:51:33;;;;;;;12.50;6.68;;;;;;;16.94;83.83;101859.75;10142992;28;20684;-68
2021/08/30 08:56:30;;;;;;;12.10;6.32;;;;;;;16.85;84.10;101857.06;10115711;28;20050;-73
2021/08/30 09:01:27;;;;;;;11.13;5.63;;;;;;;16.84;82.42;101849.91;10136860;28;20706;-68
2021/08/30 09:06:30;;;;;;;9.93;6.32;;;;;;;16.84;82.36;101860.94;10138141;28;20046;-69
2021/08/30 09:11:38;;;;;;;9.57;5.67;;;;;;;16.79;82.69;101869.44;10145677;28;20086;-69
2021/08/30 09:16:36;;;;;;;9.32;5.43;;;;;;;16.76;83.18;101861.78;10146252;28;20074;-69
2021/08/30 09:21:33;;;;;;;10.30;6.25;;;;;;;16.73;84.04;101867.97;10136609;28;20082;-69
2021/08/30 09:26:30;;;;;;;8.15;5.38;;;;;;;16.73;83.83;101876.25;10149983;28;20046;-69
2021/08/30 09:31:27;;;;;;;10.20;5.90;;;;;;;16.73;83.42;101873.47;10140845;28;20105;-68
2021/08/30 09:36:23;;;;;;;9.65;6.18;;;;;;;16.67;83.74;101883.13;10146996;28;20468;-68
2021/08/30 09:41:20;;;;;;;10.13;6.68;;;;;;;16.68;84.11;101879.19;10146789;28;20141;-70
2021/08/30 09:46:26;;;;;;;10.13;6.65;;;;;;;16.81;84.68;101878.19;10138706;28;20174;-70
2021/08/30 09:51:24;;;;;;;9.63;6.50;;;;;;;16.88;84.42;101886.78;10139170;28;20078;-70
2021/08/30 09:56:22;;;;;;;10.23;6.25;;;;;;;16.88;84.60;101875.72;10146772;28;20043;-68
2021/08/30 10:01:19;;;;;;;10.98;6.43;;;;;;;16.86;83.79;101880.78;10145909;28;20101;-70
2021/08/30 10:06:17;;;;;;;11.98;6.38;;;;;;;16.80;83.33;101882.09;10150443;28;20097;-69
2021/08/30 10:11:14;;;;;;;11.75;5.93;;;;;;;16.68;82.79;101891.03;10134472;28;20098;-68
2021/08/30 10:16:11;;;;;;;9.73;5.68;;;;;;;16.63;83.11;101888.47;10146389;28;20104;-68
2021/08/30 10:21:16;;;;;;;8.82;5.85;;;;;;;16.68;83.14;101890.25;10142349;28;20081;-73
2021/08/30 10:26:13;;;;;;;9.35;6.05;;;;;;;16.77;82.30;101885.50;10139276;28;20035;-69
2021/08/30 10:31:44;;;;;;;10.93;6.93;;;;;;;16.78;82.87;101884.38;10141953;28;20802;-68
2021/08/30 10:36:46;;;;;;;11.82;6.15;;;;;;;16.77;82.58;101893.78;10142992;28;20078;-69
2021/08/30 10:41:44;;;;;;;11.55;6.72;;;;;;;17.03;82.84;101891.75;10146062;28;20093;-70
2021/08/30 10:46:50;;;;;;;9.75;5.45;;;;;;;17.32;80.24;101881.81;10138623;28;20092;-70
2021/08/30 10:51:48;;;;;;;8.75;5.13;;;;;;;17.51;81.21;101878.59;10142693;28;20070;-71
2021/08/30 10:57:05;;;;;;;11.48;5.82;;;;;;;17.66;80.42;101885.44;10129673;28;20042;-71
2021/08/30 11:02:06;;;;;;;9.45;6.03;;;;;;;17.62;79.41;101885.34;10146594;28;20125;-68
2021/08/30 11:07:05;;;;;;;10.00;5.70;;;;;;;17.46;78.48;101882.34;10139337;28;20047;-68
2021/08/30 11:12:12;;;;;;;12.10;6.03;;;;;;;17.55;80.06;101878.72;10139111;28;20054;-70
2021/08/30 11:17:12;;;;;;;12.40;6.60;;;;;;;17.71;80.34;101882.50;10141047;28;20092;-68
2021/08/30 11:22:09;;;;;;;9.65;5.53;;;;;;;17.84;79.32;101878.66;10130030;28;20043;-68
2021/08/30 11:27:11;;;;;;;9.20;5.85;;;;;;;17.73;77.66;101891.28;10146529;28;20050;-68
2021/08/30 11:32:09;;;;;;;7.73;5.13;;;;;;;17.59;78.14;101891.53;10135304;28;20579;-73
2021/08/30 11:37:08;;;;;;;9.63;5.40;;;;;;;17.52;77.68;101884.91;10146248;28;20042;-69
2021/08/30 11:42:07;;;;;;;9.40;6.13;;;;;;;17.60;78.45;101892.34;10134626;28;20038;-76
2021/08/30 11:47:08;;;;;;;11.23;5.65;;;;;;;17.55;78.09;101892.56;10136113;28;20069;-69
2021/08/30 11:52:05;;;;;;;11.45;5.25;;;;;;;17.55;78.22;101900.84;10139937;28;20188;-69
2021/08/30 11:57:09;;;;;;;8.18;5.63;;;;;;;17.54;78.40;101899.22;10135308;28;20054;-68
2021/08/30 12:02:06;;;;;;;;;;;;;;;17.53;77.96;101894.84;10143869;28;20070;-68
2021/08/30 12:07:05;;;;;;;8.52;5.50;;;;;;;17.47;79.19;101896.97;10138525;28;19926;-68
2021/08/30 12:12:03;;;;;;;9.35;5.88;;;;;;;17.46;79.35;101893.41;10134347;28;20101;-69
2021/08/30 12:17:01;;;;;;;9.75;5.38;;;;;;;17.51;78.49;101900.69;10141666;28;20049;-71
2021/08/30 12:21:58;;;;;;;8.63;5.47;;;;;;;17.58;76.66;101905.69;10136285;28;20074;-75
2021/08/30 12:26:54;;;;;;;8.02;5.35;;;;;;;17.71;78.07;101912.09;10135445;28;20074;-68
2021/08/30 12:31:53;;;;;;;10.52;5.80;;;;;;;17.75;77.99;101904.75;10140817;28;20081;-68
2021/08/30 12:36:51;;;;;;;9.65;6.13;;;;;;;17.68;77.47;101908.06;10141750;28;20103;-71
2021/08/30 12:41:47;;;;;;;8.70;6.43;;;;;;;17.66;76.83;101907.56;10139223;28;20077;-68
2021/08/30 12:46:44;;;;;;;8.38;6.20;;;;;;;17.65;77.38;101911.50;10143230;28;20132;-68
2021/08/30 12:51:40;;;;;;;11.23;6.47;;;;;;;17.62;77.63;101915.75;10135463;28;20084;-69
2021/08/30 12:56:36;;;;;;;9.75;6.60;;;;;;;17.65;78.49;101917.84;10135605;28;20070;-71
2021/08/30 13:01:33;;;;;;;10.10;6.15;;;;;;;17.72;78.79;101914.53;10152442;28;20046;-75
2021/08/30 13:06:30;;;;;;;11.68;6.50;;;;;;;17.78;78.53;101904.91;10142710;28;20050;-68
2021/08/30 13:11:26;;;;;;;12.02;6.32;;;;;;;17.78;77.65;101907.66;10147826;28;20082;-70
2021/08/30 13:16:23;;;;;;;10.77;7.10;;;;;;;17.78;78.57;101915.97;10146194;28;20053;-70
2021/08/30 13:21:20;;;;;;;9.95;6.70;;;;;;;17.82;77.88;101916.94;10123584;28;20144;-69
2021/08/30 13:26:16;;;;;;;9.15;6.57;;;;;;;17.77;76.48;101908.00;10152753;28;20050;-68
2021/08/30 13:31:13;;;;;;;11.23;6.57;;;;;;;18.03;76.44;101905.03;10144764;28;20093;-71
2021/08/30 13:36:10;;;;;;;10.50;7.30;;;;;;;18.40;77.14;101902.38;10144907;28;20074;-73
2021/08/30 13:41:07;;;;;;;12.32;6.03;;;;;;;18.70;76.13;101898.28;10138580;28;20062;-71
2021/08/30 13:46:03;;;;;;;8.73;6.63;;;;;;;18.69;75.04;101899.44;10134847;28;20129;-68
2021/08/30 13:51:00;;;;;;;9.63;6.13;;;;;;;18.60;73.56;101895.16;10131236;28;20651;-69
2021/08/30 13:55:56;;;;;;;12.98;6.47;;;;;;;18.91;75.46;101897.38;10139293;28;20043;-70
2021/08/30 14:00:53;;;;;;;10.82;5.60;;;;;;;19.32;72.99;101904.63;10144059;28;20050;-71
2021/08/30 14:05:50;;;;;;;8.93;5.22;;;;;;;19.36;71.05;101902.00;10141155;28;20137;-66
2021/08/30 14:10:47;;;;;;;12.70;6.38;;;;;;;19.07;72.46;101898.31;10150870;28;20046;-68
2021/08/30 14:15:44;;;;;;;7.45;5.60;;;;;;;19.13;71.22;101896.94;10128575;28;20093;-70
2021/08/30 14:20:41;;;;;;;8.77;5.38;;;;;;;19.24;71.11;101893.66;10143701;28;20046;-68
2021/08/30 14:25:37;;;;;;;9.77;5.97;;;;;;;19.21;69.79;101906.25;10139885;28;20042;-69
2021/08/30 14:30:34;;;;;;;11.13;5.35;;;;;;;19.41;69.83;101907.28;10135324;28;20038;-66
2021/08/30 14:35:30;;;;;;;9.07;5.95;;;;;;;19.49;70.54;101903.56;10143343;28;20508;-66
2021/08/30 14:40:27;;;;;;;7.50;5.45;;;;;;;19.53;69.59;101907.25;10134934;28;20401;-66
2021/08/30 14:45:24;;;;;;;10.48;5.10;;;;;;;19.58;68.09;101902.63;10143624;28;20160;-67
2021/08/30 14:50:21;;;;;;;8.13;5.38;;;;;;;19.71;69.18;101899.50;10135174;28;20077;-67
2021/08/30 14:55:17;;;;;;;9.20;5.05;;;;;;;19.65;68.42;101903.63;10120942;28;20473;-66
2021/08/30 15:00:14;;;;;;;7.20;5.28;;;;;;;19.30;66.95;101897.84;10129544;28;20046;-68
2021/08/30 15:05:11;;;;;;;7.88;4.63;;;;;;;19.02;69.08;101901.31;10122355;28;20046;-67
2021/08/30 15:10:08;;;;;;;10.07;5.78;;;;;;;18.81;68.37;101897.84;10132585;28;20054;-67
2021/08/30 15:15:06;;;;;;;7.90;5.03;;;;;;;18.79;72.66;101902.94;10142373;28;20065;-67
2021/08/30 15:20:04;;;;;;;8.30;4.90;;;;;;;18.80;72.88;101904.53;10141655;28;20452;-68
2021/08/30 15:25:01;;;;;;;9.30;5.75;;;;;;;18.68;72.06;101908.91;10140779;28;20050;-67
2021/08/30 15:29:57;;;;;;;8.80;5.28;;;;;;;18.63;73.94;101911.88;10143466;28;20049;-69
2021/08/30 15:34:54;;;;;;;9.65;4.82;;;;;;;18.61;74.35;101913.38;10139688;28;20125;-70
2021/08/30 15:39:50;;;;;;;11.68;6.15;;;;;;;18.63;74.58;101916.59;10144082;28;20109;-67
2021/08/30 15:44:47;;;;;;;9.43;6.40;;;;;;;18.65;74.73;101926.19;10138597;28;20092;-68
2021/08/30 15:49:44;;;;;;;11.73;5.97;;;;;;;18.62;74.18;101921.34;10135250;28;20141;-67
2021/08/30 15:54:40;;;;;;;9.15;5.95;;;;;;;18.59;74.81;101919.28;10138573;28;20050;-71
2021/08/30 15:59:37;;;;;;;10.00;6.07;;;;;;;18.66;75.02;101927.81;10141321;28;20042;-68
2021/08/30 16:04:33;;;;;;;8.82;5.80;;;;;;;18.75;75.13;101929.66;10131754;28;20120;-67
2021/08/30 16:09:30;;;;;;;11.50;5.72;;;;;;;18.80;74.98;101933.06;10142122;28;20116;-67
2021/08/30 16:14:28;;;;;;;7.78;5.88;;;;;;;18.76;74.80;101934.06;10137927;28;20105;-67
2021/08/30 16:19:24;;;;;;;9.68;6.30;;;;;;;18.77;75.41;101932.94;10141068;28;20081;-66
2021/08/30 16:24:20;;;;;;;10.15;5.65;;;;;;;18.62;74.96;101932.44;10138271;28;20145;-67
2021/08/30 16:29:17;;;;;;;10.43;5.72;;;;;;;18.59;75.55;101930.34;10141878;28;20100;-66
2021/08/30 16:34:14;;;;;;;8.90;5.47;;;;;;;18.59;75.63;101933.13;10119022;28;20451;-70
2021/08/30 16:39:10;;;;;;;9.88;6.75;;;;;;;18.56;75.15;101933.00;10137034;28;20054;-67
2021/08/30 16:44:09;;;;;;;8.80;5.82;;;;;;;18.52;75.67;101932.88;10134179;28;20082;-68
2021/08/30 16:49:05;;;;;;;10.32;5.50;;;;;;;18.49;75.64;101933.53;10136883;28;20129;-65
2021/08/30 16:54:03;;;;;;;8.68;5.50;;;;;;;18.43;75.75;101932.16;10131376;28;20137;-66
2021/08/30 16:58:59;;;;;;;9.50;5.85;;;;;;;18.37;75.81;101933.53;10139872;28;20085;-70
2021/08/30 17:03:56;;;;;;;10.10;6.18;;;;;;;18.29;76.02;101933.28;10140950;28;20046;-68
2021/08/30 17:08:52;;;;;;;8.05;5.60;;;;;;;18.19;76.25;101935.63;10139482;28;20034;-67
2021/08/30 17:13:49;;;;;;;9.13;5.22;;;;;;;18.18;75.33;101937.59;10140484;28;20046;-68
2021/08/30 17:18:45;;;;;;;10.75;6.80;;;;;;;18.16;75.70;101941.88;10140086;28;20089;-68
2021/08/30 17:23:42;;;;;;;9.20;6.60;;;;;;;18.06;75.91;101938.38;10139572;28;20043;-67
2021/08/30 17:28:38;;;;;;;12.50;7.78;;;;;;;18.06;76.37;101948.63;10147112;28;20050;-67
2021/08/30 17:33:34;;;;;;;15.57;8.75;;;;;;;17.98;75.87;101946.75;10144795;28;20050;-69
2021/08/30 17:38:31;;;;;;;11.35;6.55;;;;;;;17.93;75.83;101938.66;10147661;28;20050;-67
2021/08/30 17:43:27;;;;;;;10.88;6.22;;;;;;;17.88;76.22;101937.69;10146530;28;20141;-69
2021/08/30 17:48:24;;;;;;;7.82;5.40;;;;;;;17.83;76.15;101946.22;10144871;28;20073;-66
2021/08/30 17:53:20;;;;;;;12.02;6.60;;;;;;;17.81;76.68;101953.22;10144149;28;20116;-69
2021/08/30 17:58:17;;;;;;;10.05;5.90;;;;;;;17.71;76.80;101954.41;10142667;28;20132;-66
2021/08/30 18:03:15;;;;;;;9.38;5.40;;;;;;;17.60;77.22;101947.66;10141183;28;20122;-64
2021/08/30 18:08:11;;;;;;;8.68;6.18;;;;;;;17.58;76.78;101964.56;10138622;28;20058;-70
2021/08/30 18:13:08;;;;;;;12.48;6.68;;;;;;;17.51;77.04;101969.81;10136885;28;20105;-67
2021/08/30 18:18:05;;;;;;;8.50;6.03;;;;;;;17.42;77.09;101980.13;10139622;28;20555;-67
2021/08/30 18:23:06;;;;;;;10.27;6.25;;;;;;;17.43;77.41;101977.03;10140153;28;20076;-67
2021/08/30 18:28:03;;;;;;;10.32;6.28;;;;;;;17.41;77.74;101984.84;10136230;28;20070;-66
2021/08/30 18:33:00;;;;;;;10.23;6.40;;;;;;;17.40;77.77;101988.75;10136927;28;20133;-67
2021/08/30 18:37:57;;;;;;;10.60;6.40;;;;;;;17.35;77.51;102000.00;10135498;28;20125;-67
2021/08/30 18:42:54;;;;;;;11.90;6.63;;;;;;;17.36;77.83;102004.41;10137359;28;20424;-67
2021/08/30 18:47:50;;;;;;;13.23;6.03;;;;;;;17.32;78.34;102011.72;10137128;28;20046;-67
2021/08/30 18:52:47;;;;;;;9.32;6.78;;;;;;;17.32;78.61;102025.56;10139448;28;20078;-67
2021/08/30 18:57:44;;;;;;;10.45;6.32;;;;;;;17.21;78.79;102014.03;10137143;28;20044;-67
2021/08/30 19:02:41;;;;;;;10.48;6.68;;;;;;;17.20;78.48;102006.91;10137680;28;20093;-67
2021/08/30 19:07:40;;;;;;;10.88;6.25;;;;;;;17.13;79.19;102014.91;10140068;28;21244;-67
2021/08/30 19:12:38;;;;;;;11.90;7.68;;;;;;;17.00;78.84;102019.47;10137470;28;20046;-67
2021/08/30 19:17:35;;;;;;;12.90;6.40;;;;;;;16.96;79.19;102018.50;10140030;28;20046;-67
2021/08/30 19:22:31;;;;;;;9.90;6.20;;;;;;;16.90;79.87;102019.84;10135793;28;20500;-67
2021/08/30 19:27:28;;;;;;;11.50;6.75;;;;;;;16.81;79.89;102021.81;10133204;28;20054;-67
2021/08/30 19:32:26;;;;;;;11.95;6.70;;;;;;;16.73;80.71;102008.81;10135291;28;20054;-67
2021/08/30 19:37:29;;;;;;;10.55;8.13;;;;;;;16.63;80.62;102021.81;10136388;28;20089;-67
2021/08/30 19:42:25;;;;;;;14.70;7.50;;;;;;;16.52;80.95;102015.00;10135635;28;20563;-67
2021/08/30 19:47:22;;;;;;;10.65;7.38;;;;;;;16.44;81.05;102024.13;10132466;28;20932;-66
2021/08/30 19:52:19;;;;;;;13.63;7.72;;;;;;;16.36;81.29;102030.44;10134634;28;20042;-66
2021/08/30 19:57:15;;;;;;;11.55;7.32;;;;;;;16.30;81.58;102024.28;10138799;28;20089;-69
2021/08/30 20:02:12;;;;;;;12.90;8.50;;;;;;;16.26;81.56;102016.97;10134521;28;20632;-69
2021/08/30 20:07:09;;;;;;;14.13;8.57;;;;;;;16.27;81.49;102013.06;10137516;28;20653;-68
2021/08/30 20:12:05;;;;;;;11.80;8.60;;;;;;;16.24;81.87;102022.00;10141591;28;20085;-67
2021/08/30 20:17:03;;;;;;;10.35;8.07;;;;;;;16.19;81.81;102034.81;10137406;28;20066;-67
2021/08/30 20:22:00;;;;;;;13.23;8.90;;;;;;;16.17;81.96;102028.81;10143659;28;20496;-67
2021/08/30 20:26:56;;;;;;;14.70;8.75;;;;;;;16.10;82.28;102036.78;10139227;28;20452;-68
2021/08/30 20:31:54;;;;;;;15.00;8.63;;;;;;;16.02;82.57;102034.03;10130541;28;20042;-68
2021/08/30 20:36:51;;;;;;;11.70;8.45;;;;;;;15.98;82.63;102031.09;10138127;28;20050;-69
2021/08/30 20:41:48;;;;;;;14.93;8.75;;;;;;;15.91;82.75;102036.28;10126117;28;20046;-70
2021/08/30 20:46:44;;;;;;;11.98;8.05;;;;;;;15.83;83.15;102037.06;10140692;28;20042;-71
2021/08/30 20:51:41;;;;;;;17.90;11.10;;;;;;;15.76;83.42;102032.84;10141722;28;20467;-70
2021/08/30 20:56:37;;;;;;;14.95;11.02;;;;;;;15.71;83.33;102035.75;10140558;28;20058;-70
2021/08/30 21:01:34;;;;;;;13.90;10.77;;;;;;;15.63;83.58;102031.00;10137029;28;20038;-71
2021/08/30 21:06:31;;;;;;;12.95;8.73;;;;;;;15.58;83.70;102031.16;10139304;28;20068;-71
2021/08/30 21:11:27;;;;;;;14.23;8.63;;;;;;;15.52;83.95;102022.19;10144694;28;20085;-68
2021/08/30 21:16:24;;;;;;;15.85;9.23;;;;;;;15.46;84.12;102028.19;10145255;28;20459;-68
2021/08/30 21:21:20;;;;;;;14.07;8.95;;;;;;;15.46;84.23;102028.19;10151214;28;20463;-67
2021/08/30 21:26:17;;;;;;;11.27;8.13;;;;;;;15.45;84.17;102026.56;10140247;28;20097;-68
2021/08/30 21:31:14;;;;;;;13.68;10.07;;;;;;;15.43;84.25;102029.63;10141131;28;20487;-68
2021/08/30 21:36:10;;;;;;;12.30;9.15;;;;;;;15.39;84.15;102033.31;10138184;28;20084;-68
2021/08/30 21:41:07;;;;;;;16.20;10.68;;;;;;;15.32;84.41;102034.63;10146019;28;20042;-70
2021/08/30 21:46:03;;;;;;;11.27;8.93;;;;;;;15.30;84.88;102036.88;10140482;28;20070;-69
2021/08/30 21:51:00;;;;;;;16.45;10.63;;;;;;;15.26;84.42;102030.38;10141997;28;20081;-71
2021/08/30 21:55:57;;;;;;;14.00;10.00;;;;;;;15.24;84.87;102032.63;10140416;28;20047;-70
2021/08/30 22:00:53;;;;;;;18.08;10.15;;;;;;;15.18;84.68;102028.41;10145821;28;20070;-69
2021/08/30 22:05:50;;;;;;;13.18;9.25;;;;;;;15.16;85.17;102041.69;10144367;28;20058;-67
2021/08/30 22:10:47;;;;;;;14.40;10.05;;;;;;;15.12;84.89;102049.75;10137441;28;20112;-67
2021/08/30 22:15:44;;;;;;;16.00;9.88;;;;;;;15.10;84.91;102053.94;10137785;28;20134;-69
2021/08/30 22:20:40;;;;;;;14.13;9.70;;;;;;;15.06;85.35;102053.78;10133367;28;20046;-69
2021/08/30 22:25:37;;;;;;;15.05;10.35;;;;;;;15.04;85.13;102055.22;10146522;28;20092;-68
2021/08/30 22:30:34;;;;;;;13.73;9.20;;;;;;;15.02;85.07;102057.50;10147416;28;20062;-68
2021/08/30 22:35:30;;;;;;;13.80;9.02;;;;;;;15.00;85.21;102054.25;10144888;28;20590;-68
2021/08/30 22:40:27;;;;;;;14.23;9.10;;;;;;;14.97;84.93;102054.84;10142052;28;20501;-67
2021/08/30 22:45:24;;;;;;;12.75;8.52;;;;;;;14.90;84.89;102050.63;10136832;28;20058;-67